createdAt,value
2022-09-15T00:01:11.936Z,144.32
2022-09-15T00:03:39.978Z,149.90
2022-09-15T00:06:08.821Z,142.20
2022-09-15T00:08:36.435Z,147.90
2022-09-15T00:11:08.649Z,138.63
2022-09-15T00:13:37.401Z,138.75
2022-09-15T00:16:05.752Z,138.02
2022-09-15T00:18:34.067Z,135.00
2022-09-15T00:21:09.850Z,144.20
2022-09-15T00:23:37.857Z,138.27
2022-09-15T00:26:11.154Z,138.05
2022-09-15T00:28:38.732Z,131.55
2022-09-15T00:31:09.388Z,137.32
2022-09-15T00:33:37.133Z,136.20
2022-09-15T00:36:06.876Z,135.73
2022-09-15T00:38:36.067Z,135.18
2022-09-15T00:41:04.933Z,134.43
2022-09-15T00:43:59.613Z,136.32
2022-09-15T00:46:39.860Z,134.98
2022-09-15T00:49:15.867Z,138.20
2022-09-15T00:52:04.410Z,131.93
2022-09-15T00:54:53.027Z,137.95
2022-09-15T00:57:55.328Z,121.28
2022-09-15T01:00:25.481Z,138.93
2022-09-15T01:02:53.393Z,140.20
2022-09-15T01:05:24.100Z,130.45
2022-09-15T01:08:11.891Z,138.13
2022-09-15T01:10:41.447Z,131.63
2022-09-15T01:13:12.081Z,134.93
2022-09-15T01:15:39.559Z,134.25
2022-09-15T01:18:19.284Z,133.50
2022-09-15T01:21:18.173Z,133.32
2022-09-15T01:23:56.688Z,131.35
2022-09-15T01:26:52.885Z,146.25
2022-09-15T01:29:43.965Z,129.40
2022-09-15T01:32:53.088Z,129.23
2022-09-15T01:35:39.108Z,134.75
2022-09-15T01:38:22.411Z,135.23
2022-09-15T01:41:09.950Z,135.48
2022-09-15T01:43:44.176Z,140.48
2022-09-15T01:46:15.798Z,139.65
2022-09-15T01:48:44.655Z,128.57
2022-09-15T01:51:12.420Z,132.35
2022-09-15T01:53:41.005Z,150.15
2022-09-15T01:56:21.751Z,135.98
2022-09-15T01:58:51.493Z,135.93
2022-09-15T02:01:54.195Z,134.90
2022-09-15T02:04:33.377Z,127.43
2022-09-15T02:07:35.664Z,132.55
2022-09-15T02:10:11.770Z,132.48
2022-09-15T02:13:06.376Z,133.50
2022-09-15T02:15:43.033Z,130.35
2022-09-15T02:18:14.355Z,134.32
2022-09-15T02:20:57.930Z,126.45
2022-09-15T02:23:33.015Z,133.30
2022-09-15T02:26:07.926Z,131.85
2022-09-15T02:28:38.922Z,132.57
2022-09-15T02:31:11.642Z,124.97
2022-09-15T02:34:05.962Z,139.23
2022-09-15T02:36:34.572Z,136.93
2022-09-15T02:39:07.399Z,133.25
2022-09-15T02:41:36.811Z,87.10
2022-09-15T02:44:04.413Z,126.50
2022-09-15T02:46:32.025Z,114.07
2022-09-15T02:48:59.367Z,122.93
2022-09-15T02:51:26.793Z,128.35
2022-09-15T02:53:54.828Z,136.20
2022-09-15T02:56:22.545Z,136.57
2022-09-15T02:58:49.864Z,137.70
2022-09-15T03:01:18.254Z,136.65
2022-09-15T03:03:46.722Z,132.85
2022-09-15T03:06:17.948Z,134.55
2022-09-15T03:08:49.830Z,136.32
2022-09-15T03:11:19.467Z,134.77
2022-09-15T03:13:47.368Z,127.55
2022-09-15T03:16:16.490Z,126.72
2022-09-15T03:18:44.062Z,127.90
2022-09-15T03:21:14.181Z,135.02
2022-09-15T03:23:42.530Z,139.77
2022-09-15T03:26:10.928Z,131.77
2022-09-15T03:28:39.258Z,138.00
2022-09-15T03:31:08.232Z,128.85
2022-09-15T03:33:36.823Z,132.70
2022-09-15T03:36:04.868Z,129.63
2022-09-15T03:38:32.401Z,125.70
2022-09-15T03:41:06.501Z,123.20
2022-09-15T03:43:34.958Z,124.95
2022-09-15T03:46:03.509Z,129.77
2022-09-15T03:48:33.451Z,126.50
2022-09-15T03:51:00.966Z,123.15
2022-09-15T03:53:28.461Z,132.35
2022-09-15T03:55:55.755Z,125.57
2022-09-15T03:58:23.317Z,125.88
2022-09-15T04:00:51.112Z,124.97
2022-09-15T04:03:18.459Z,130.35
2022-09-15T04:05:45.805Z,125.40
2022-09-15T04:08:13.569Z,119.93
2022-09-15T04:10:41.604Z,129.68
2022-09-15T04:13:09.417Z,128.40
2022-09-15T04:15:37.120Z,124.28
2022-09-15T04:18:05.099Z,123.97
2022-09-15T04:20:32.673Z,135.52
2022-09-15T04:23:00.090Z,133.65
2022-09-15T04:25:28.060Z,140.55
2022-09-15T04:27:57.175Z,145.25
2022-09-15T04:30:24.599Z,131.10
2022-09-15T04:32:52.591Z,135.73
2022-09-15T04:35:22.127Z,133.63
2022-09-15T04:37:49.609Z,129.48
2022-09-15T04:40:16.934Z,136.55
2022-09-15T04:42:44.344Z,141.10
2022-09-15T04:45:11.841Z,143.50
2022-09-15T04:47:39.353Z,142.55
2022-09-15T04:50:07.032Z,134.68
2022-09-15T04:52:34.372Z,153.30
2022-09-15T04:55:01.697Z,146.10
2022-09-15T04:57:29.110Z,145.57
2022-09-15T04:59:56.420Z,144.73
2022-09-15T05:02:23.916Z,136.85
2022-09-15T05:04:51.814Z,137.68
2022-09-15T05:07:19.290Z,141.05
2022-09-15T05:09:46.624Z,135.55
2022-09-15T05:12:14.346Z,155.77
2022-09-15T05:14:41.557Z,149.80
2022-09-15T05:17:09.056Z,145.52
2022-09-15T05:19:36.294Z,139.52
2022-09-15T05:22:03.543Z,147.60
2022-09-15T05:24:30.836Z,143.73
2022-09-15T05:26:58.178Z,146.40
2022-09-15T05:29:25.548Z,146.43
2022-09-15T05:31:52.983Z,141.50
2022-09-15T05:34:20.414Z,143.73
2022-09-15T05:36:47.810Z,140.25
2022-09-15T05:39:15.168Z,145.00
2022-09-15T05:41:42.669Z,143.23
2022-09-15T05:44:12.739Z,150.10
2022-09-15T05:46:40.267Z,138.55
2022-09-15T05:49:08.960Z,135.60
2022-09-15T05:51:36.837Z,138.55
2022-09-15T05:54:04.424Z,134.35
2022-09-15T05:56:31.851Z,141.45
2022-09-15T05:58:59.645Z,144.75
2022-09-15T06:01:29.171Z,145.10
2022-09-15T06:03:57.856Z,137.18
2022-09-15T06:06:26.522Z,139.15
2022-09-15T06:08:58.422Z,134.10
2022-09-15T06:11:35.552Z,136.67
2022-09-15T06:14:04.254Z,138.23
2022-09-15T06:16:34.034Z,135.88
2022-09-15T06:19:02.247Z,139.75
2022-09-15T06:21:31.243Z,136.95
2022-09-15T06:24:01.423Z,149.02
2022-09-15T06:26:29.211Z,145.43
2022-09-15T06:29:01.719Z,152.75
2022-09-15T06:31:31.941Z,113.10
2022-09-15T06:34:00.704Z,157.25
2022-09-15T06:36:29.874Z,150.32
2022-09-15T06:38:57.705Z,139.52
2022-09-15T06:41:25.720Z,151.75
2022-09-15T06:43:53.387Z,149.50
2022-09-15T06:46:23.773Z,140.30
2022-09-15T06:48:52.198Z,134.68
2022-09-15T06:51:22.960Z,143.40
2022-09-15T06:53:50.815Z,132.35
2022-09-15T06:56:20.647Z,122.90
2022-09-15T06:58:49.568Z,128.88
2022-09-15T07:01:25.999Z,120.13
2022-09-15T07:03:54.078Z,129.30
2022-09-15T07:06:22.299Z,121.32
2022-09-15T07:08:50.262Z,126.30
2022-09-15T07:11:18.604Z,123.88
2022-09-15T07:13:47.613Z,120.40
2022-09-15T07:16:15.438Z,125.30
2022-09-15T07:18:43.722Z,113.22
2022-09-15T07:21:16.879Z,116.45
2022-09-15T07:23:44.934Z,118.03
2022-09-15T07:26:16.401Z,121.30
2022-09-15T07:28:46.334Z,113.45
2022-09-15T07:31:16.930Z,113.47
2022-09-15T07:33:44.802Z,106.55
2022-09-15T07:36:12.887Z,101.25
2022-09-15T07:38:42.400Z,110.10
2022-09-15T07:41:14.832Z,107.32
2022-09-15T07:43:50.071Z,130.27
2022-09-15T07:46:17.980Z,109.35
2022-09-15T07:48:46.375Z,108.10
2022-09-15T07:51:14.054Z,106.95
2022-09-15T07:53:41.896Z,102.05
2022-09-15T07:56:09.579Z,101.90
2022-09-15T07:58:36.952Z,125.95
2022-09-15T08:01:06.469Z,103.32
2022-09-15T08:03:34.237Z,108.10
2022-09-15T08:06:03.447Z,109.55
2022-09-15T08:08:31.257Z,99.93
2022-09-15T08:10:58.531Z,100.10
2022-09-15T08:13:25.773Z,103.78
2022-09-15T08:15:53.186Z,102.50
2022-09-15T08:18:20.479Z,96.60
2022-09-15T08:20:47.782Z,97.10
2022-09-15T08:23:15.058Z,95.68
2022-09-15T08:25:42.414Z,96.47
2022-09-15T08:28:09.834Z,92.82
2022-09-15T08:30:37.319Z,95.15
2022-09-15T08:33:04.759Z,93.63
2022-09-15T08:35:32.907Z,96.03
2022-09-15T08:38:00.166Z,95.95
2022-09-15T08:40:44.458Z,95.15
2022-09-15T08:43:27.076Z,98.88
2022-09-15T08:45:59.546Z,101.13
2022-09-15T08:48:45.764Z,95.13
2022-09-15T08:51:23.843Z,98.13
2022-09-15T08:53:59.923Z,92.85
2022-09-15T08:56:29.198Z,96.88
2022-09-15T08:58:56.634Z,99.05
2022-09-15T09:01:23.997Z,99.20
2022-09-15T09:04:26.859Z,99.78
2022-09-15T09:07:06.132Z,105.25
2022-09-15T09:10:05.847Z,102.15
2022-09-15T09:12:38.702Z,112.05
2022-09-15T09:15:25.431Z,95.03
2022-09-15T09:18:23.042Z,104.22
2022-09-15T09:21:13.935Z,102.38
2022-09-15T09:24:05.401Z,97.68
2022-09-15T09:26:36.322Z,101.88
2022-09-15T09:29:19.789Z,99.93
2022-09-15T09:31:50.682Z,104.03
2022-09-15T09:34:26.631Z,99.40
2022-09-15T09:37:01.288Z,98.38
2022-09-15T09:39:28.943Z,98.55
2022-09-15T09:41:56.389Z,103.10
2022-09-15T09:44:32.122Z,99.90
2022-09-15T09:47:00.638Z,98.93
2022-09-15T09:49:34.823Z,98.65
2022-09-15T09:52:03.817Z,97.38
2022-09-15T09:54:33.438Z,100.18
2022-09-15T09:57:22.384Z,98.97
2022-09-15T09:59:50.963Z,100.95
2022-09-15T10:02:19.713Z,102.65
2022-09-15T10:04:51.482Z,101.72
2022-09-15T10:07:22.921Z,97.72
2022-09-15T10:09:58.989Z,98.30
2022-09-15T10:12:38.847Z,104.65
2022-09-15T10:15:20.488Z,96.90
2022-09-15T10:17:49.835Z,96.68
2022-09-15T10:20:32.578Z,103.60
2022-09-15T10:23:31.135Z,71.50
2022-09-15T10:26:16.541Z,98.03
2022-09-15T10:28:45.127Z,100.28
2022-09-15T10:31:17.224Z,104.35
2022-09-15T10:33:46.272Z,93.07
2022-09-15T10:36:17.578Z,97.85
2022-09-15T10:38:56.874Z,93.85
2022-09-15T10:41:31.852Z,104.30
2022-09-15T10:44:07.107Z,97.03
2022-09-15T10:46:39.344Z,93.78
2022-09-15T10:49:23.076Z,98.43
2022-09-15T10:52:22.344Z,100.40
2022-09-15T10:55:42.143Z,93.47
2022-09-15T10:58:33.348Z,92.85
2022-09-15T11:01:24.029Z,91.95
2022-09-15T11:04:21.778Z,93.97
2022-09-15T11:07:18.498Z,94.45
2022-09-15T11:09:56.013Z,88.88
2022-09-15T11:12:43.691Z,88.30
2022-09-15T11:15:37.420Z,106.35
2022-09-15T11:18:19.951Z,93.10
2022-09-15T11:21:11.757Z,97.57
2022-09-15T11:23:57.420Z,95.32
2022-09-15T11:26:42.612Z,92.32
2022-09-15T11:29:31.460Z,92.18
2022-09-15T11:32:06.600Z,96.13
2022-09-15T11:34:40.010Z,93.78
2022-09-15T11:40:08.196Z,95.55
2022-09-15T11:42:46.776Z,92.63
2022-09-15T11:45:20.449Z,96.68
2022-09-15T11:47:53.244Z,92.30
2022-09-15T11:50:32.738Z,70.68
2022-09-15T11:53:22.038Z,102.80
2022-09-15T11:56:01.716Z,93.97
2022-09-15T11:58:46.555Z,93.47
2022-09-15T12:01:28.828Z,95.80
2022-09-15T12:04:02.390Z,93.55
2022-09-15T12:09:06.000Z,100.38
2022-09-15T12:11:41.535Z,89.97
2022-09-15T12:14:28.577Z,89.38
2022-09-15T12:16:57.810Z,90.63
2022-09-15T12:19:33.811Z,169.32
2022-09-15T12:22:03.907Z,202.77
2022-09-15T12:24:37.461Z,158.35
2022-09-15T12:27:05.159Z,169.18
2022-09-15T12:29:49.454Z,167.55
2022-09-15T12:32:31.169Z,373.90
2022-09-15T12:35:16.589Z,370.33
2022-09-15T12:38:13.100Z,369.40
2022-09-15T12:40:41.875Z,351.33
2022-09-15T12:43:12.937Z,352.63
2022-09-15T12:45:53.648Z,334.27
2022-09-15T12:48:46.763Z,344.85
2022-09-15T12:51:25.525Z,340.52
2022-09-15T12:54:05.580Z,344.92
2022-09-15T12:56:35.004Z,328.70
2022-09-15T12:59:07.281Z,311.35
2022-09-15T13:01:43.794Z,237.05
2022-09-15T13:04:44.522Z,279.67
2022-09-15T13:07:18.718Z,267.88
2022-09-15T13:10:09.324Z,247.70
2022-09-15T13:12:41.400Z,260.80
2022-09-15T13:15:16.141Z,233.60
2022-09-15T13:17:46.922Z,254.35
2022-09-15T13:20:24.233Z,240.45
2022-09-15T13:22:56.520Z,232.75
2022-09-15T13:25:30.502Z,228.77
2022-09-15T13:28:02.585Z,223.75
2022-09-15T13:30:41.477Z,208.25
2022-09-15T13:40:27.647Z,187.23
2022-09-15T13:43:12.815Z,195.05
2022-09-15T13:46:22.668Z,191.90
2022-09-15T13:49:15.868Z,144.38
2022-09-15T13:51:48.378Z,143.40
2022-09-15T13:54:20.150Z,138.98
2022-09-15T13:56:49.382Z,154.55
2022-09-15T13:59:27.870Z,147.32
2022-09-15T14:01:55.669Z,139.38
2022-09-15T14:04:26.335Z,133.32
2022-09-15T14:07:00.066Z,131.15
2022-09-15T14:09:37.633Z,122.72
2022-09-15T14:12:16.720Z,121.53
2022-09-15T14:14:51.743Z,111.93
2022-09-15T14:17:22.718Z,126.65
2022-09-15T14:19:52.759Z,120.10
2022-09-15T14:22:41.054Z,106.72
2022-09-15T14:25:17.263Z,119.82
2022-09-15T14:27:50.068Z,112.85
2022-09-15T14:30:20.579Z,79.65
2022-09-15T14:32:52.431Z,113.32
2022-09-15T14:35:26.751Z,103.20
2022-09-15T14:37:59.436Z,109.95
2022-09-15T14:40:31.718Z,84.68
2022-09-15T14:42:59.117Z,109.10
2022-09-15T14:48:30.221Z,117.80
2022-09-15T14:51:42.069Z,126.20
2022-09-15T14:54:24.053Z,110.78
2022-09-15T14:56:52.935Z,109.22
2022-09-15T14:59:27.195Z,113.35
2022-09-15T15:02:12.343Z,128.90
2022-09-15T15:04:42.404Z,103.68
2022-09-15T15:07:23.040Z,102.53
2022-09-15T15:10:21.476Z,97.85
2022-09-15T15:13:18.556Z,99.90
2022-09-15T15:15:46.713Z,100.68
2022-09-15T15:18:35.813Z,101.97
2022-09-15T15:21:03.836Z,94.68
2022-09-15T15:23:32.287Z,91.35
2022-09-15T15:26:38.284Z,96.82
2022-09-15T15:29:09.407Z,92.18
2022-09-15T15:31:40.442Z,94.63
2022-09-15T15:34:24.063Z,90.32
2022-09-15T15:36:51.558Z,88.57
2022-09-15T15:39:25.246Z,93.18
2022-09-15T15:42:02.742Z,91.13
2022-09-15T15:44:31.351Z,90.30
2022-09-15T15:47:04.118Z,91.80
2022-09-15T15:49:32.722Z,89.97
2022-09-15T15:52:01.442Z,91.55
2022-09-15T15:54:29.570Z,89.75
2022-09-15T15:57:21.145Z,90.03
2022-09-15T15:59:48.651Z,98.28
2022-09-15T16:02:16.331Z,88.07
2022-09-15T16:04:43.850Z,90.18
2022-09-15T16:07:17.405Z,89.05
2022-09-15T16:09:47.024Z,93.53
2022-09-15T16:12:15.132Z,97.55
2022-09-15T16:14:42.929Z,90.00
2022-09-15T16:17:10.990Z,92.13
2022-09-15T16:19:38.801Z,91.57
2022-09-15T16:22:06.292Z,93.25
2022-09-15T16:24:33.714Z,91.90
2022-09-15T16:27:00.995Z,91.18
2022-09-15T16:29:36.312Z,91.75
2022-09-15T16:32:05.945Z,89.32
2022-09-15T16:34:33.384Z,92.20
2022-09-15T16:37:01.370Z,93.55
2022-09-15T16:39:28.857Z,91.18
2022-09-15T16:41:56.377Z,92.10
2022-09-15T16:44:23.993Z,88.07
2022-09-15T16:46:51.571Z,91.75
2022-09-15T16:49:18.951Z,93.95
2022-09-15T16:51:46.430Z,88.22
2022-09-15T16:54:18.854Z,89.95
2022-09-15T16:56:46.651Z,68.23
2022-09-15T16:59:14.314Z,90.13
2022-09-15T17:01:41.751Z,92.22
2022-09-15T17:04:14.682Z,92.10
2022-09-15T17:06:42.947Z,88.88
2022-09-15T17:09:10.350Z,94.05
2022-09-15T17:11:37.821Z,95.47
2022-09-15T17:14:05.396Z,90.65
2022-09-15T17:16:32.858Z,89.47
2022-09-15T17:19:00.294Z,91.65
2022-09-15T17:21:27.728Z,89.53
2022-09-15T17:23:55.136Z,95.45
2022-09-15T17:26:30.500Z,87.72
2022-09-15T17:28:58.762Z,91.72
2022-09-15T17:31:28.221Z,90.65
2022-09-15T17:33:55.751Z,88.85
2022-09-15T17:36:23.144Z,88.25
2022-09-15T17:38:50.658Z,91.63
2022-09-15T17:41:19.902Z,86.63
2022-09-15T17:43:47.503Z,88.47
2022-09-15T17:46:15.092Z,87.72
2022-09-15T17:48:42.648Z,88.00
2022-09-15T17:51:15.760Z,90.13
2022-09-15T17:53:43.403Z,91.00
2022-09-15T17:56:10.838Z,89.50
2022-09-15T17:58:38.606Z,89.55
2022-09-15T18:01:06.170Z,89.82
2022-09-15T18:03:36.053Z,86.40
2022-09-15T18:06:08.370Z,84.75
2022-09-15T18:08:36.435Z,85.95
2022-09-15T18:11:05.501Z,88.07
2022-09-15T18:13:34.269Z,86.30
2022-09-15T18:16:07.103Z,87.05
2022-09-15T18:18:34.639Z,59.33
2022-09-15T18:21:07.290Z,87.68
2022-09-15T18:23:35.234Z,65.15
2022-09-15T18:26:02.687Z,89.25
2022-09-15T18:28:30.108Z,90.25
2022-09-15T18:30:57.597Z,90.70
2022-09-15T18:33:26.451Z,92.68
2022-09-15T18:35:55.907Z,91.57
2022-09-15T18:38:23.859Z,92.72
2022-09-15T18:40:53.663Z,88.95
2022-09-15T18:43:22.745Z,88.47
2022-09-15T18:45:50.562Z,88.68
2022-09-15T18:48:18.084Z,87.80
2022-09-15T18:50:46.134Z,88.32
2022-09-15T18:53:14.274Z,87.10
2022-09-15T18:55:42.261Z,88.75
2022-09-15T18:58:11.050Z,89.30
2022-09-15T19:00:38.619Z,89.38
2022-09-15T19:03:09.533Z,105.03
2022-09-15T19:05:37.692Z,110.18
2022-09-15T19:08:05.227Z,104.18
2022-09-15T19:10:32.704Z,100.35
2022-09-15T19:13:00.148Z,89.22
2022-09-15T19:15:29.483Z,94.80
2022-09-15T19:17:56.713Z,86.15
2022-09-15T19:20:24.079Z,84.95
2022-09-15T19:22:51.829Z,86.13
2022-09-15T19:25:19.279Z,88.57
2022-09-15T19:27:48.035Z,90.95
2022-09-15T19:30:15.528Z,87.13
2022-09-15T19:32:43.199Z,87.00
2022-09-15T19:35:11.493Z,86.60
2022-09-15T19:37:41.608Z,84.20
2022-09-15T19:40:13.137Z,86.45
2022-09-15T19:42:42.551Z,86.78
2022-09-15T19:45:11.549Z,86.47
2022-09-15T19:47:39.951Z,85.95
2022-09-15T19:50:08.747Z,84.43
2022-09-15T19:52:36.284Z,86.85
2022-09-15T19:55:06.827Z,86.65
2022-09-15T19:57:34.188Z,87.57
2022-09-15T20:00:01.440Z,84.82
2022-09-15T20:02:31.776Z,89.65
2022-09-15T20:04:59.463Z,86.43
2022-09-15T20:07:26.770Z,84.57
2022-09-15T20:09:55.479Z,89.20
2022-09-15T20:12:22.775Z,84.13
2022-09-15T20:14:50.101Z,85.50
2022-09-15T20:17:17.575Z,94.22
2022-09-15T20:19:44.926Z,92.93
2022-09-15T20:22:12.120Z,91.93
2022-09-15T20:24:40.384Z,93.60
2022-09-15T20:27:09.051Z,98.53
2022-09-15T20:29:36.353Z,90.25
2022-09-15T20:32:03.645Z,92.10
2022-09-15T20:34:31.217Z,91.22
2022-09-15T20:36:58.551Z,86.45
2022-09-15T20:39:26.051Z,84.55
2022-09-15T20:41:53.337Z,86.65
2022-09-15T20:44:20.739Z,85.05
2022-09-15T20:46:48.106Z,86.13
2022-09-15T20:49:16.023Z,85.32
2022-09-15T20:51:43.272Z,84.05
2022-09-15T20:54:11.101Z,85.15
2022-09-15T20:56:38.454Z,85.35
2022-09-15T20:59:07.903Z,85.82
2022-09-15T21:01:37.347Z,86.25
2022-09-15T21:04:06.864Z,85.60
2022-09-15T21:06:34.500Z,84.90
2022-09-15T21:09:01.850Z,87.55
2022-09-15T21:11:30.243Z,84.25
2022-09-15T21:13:58.831Z,84.53
2022-09-15T21:16:28.775Z,85.88
2022-09-15T21:18:58.176Z,87.63
2022-09-15T21:21:30.381Z,85.22
2022-09-15T21:24:01.960Z,85.78
2022-09-15T21:26:31.812Z,88.53
2022-09-15T21:28:59.316Z,86.60
2022-09-15T21:31:32.030Z,84.43
2022-09-15T21:34:00.129Z,63.03
2022-09-15T21:36:29.874Z,85.72
2022-09-15T21:38:59.417Z,85.88
2022-09-15T21:41:29.885Z,86.95
2022-09-15T21:43:59.214Z,85.60
2022-09-15T21:46:29.117Z,83.45
2022-09-15T21:48:57.995Z,84.40
2022-09-15T21:51:26.901Z,83.55
2022-09-15T21:53:56.288Z,86.60
2022-09-15T21:56:25.208Z,87.78
2022-09-15T21:58:52.664Z,86.70
2022-09-15T22:01:22.912Z,85.13
2022-09-15T22:03:51.733Z,83.93
2022-09-15T22:06:20.945Z,86.85
2022-09-15T22:08:48.764Z,86.22
2022-09-15T22:11:16.108Z,84.35
2022-09-15T22:13:44.885Z,83.57
2022-09-15T22:16:18.544Z,85.53
2022-09-15T22:18:46.526Z,82.78
2022-09-15T22:21:17.934Z,82.88
2022-09-15T22:23:46.826Z,84.55
2022-09-15T22:26:17.976Z,85.88
2022-09-15T22:28:46.055Z,85.68
2022-09-15T22:31:15.130Z,83.97
2022-09-15T22:33:42.603Z,85.88
2022-09-15T22:36:19.592Z,84.60
2022-09-15T22:38:47.547Z,84.82
2022-09-15T22:41:17.457Z,82.30
2022-09-15T22:43:48.123Z,84.47
2022-09-15T22:46:17.145Z,83.68
2022-09-15T22:48:44.522Z,83.53
2022-09-15T22:51:12.817Z,82.50
2022-09-15T22:53:40.209Z,83.88
2022-09-15T22:56:21.222Z,85.85
2022-09-15T22:58:50.019Z,84.25
2022-09-15T23:01:20.032Z,84.90
2022-09-15T23:03:56.108Z,82.25
2022-09-15T23:06:24.741Z,83.72
2022-09-15T23:08:57.754Z,83.28
2022-09-15T23:11:26.217Z,60.20
2022-09-15T23:13:54.934Z,82.45
2022-09-15T23:16:24.337Z,84.45
2022-09-15T23:18:52.939Z,82.30
2022-09-15T23:21:21.229Z,81.43
2022-09-15T23:23:49.468Z,85.18
2022-09-15T23:26:19.147Z,84.13
2022-09-15T23:28:46.559Z,85.85
2022-09-15T23:31:14.619Z,83.45
2022-09-15T23:33:42.599Z,84.88
2022-09-15T23:36:12.804Z,83.95
2022-09-15T23:38:41.881Z,83.20
2022-09-15T23:41:10.713Z,84.43
2022-09-15T23:43:38.202Z,83.47
2022-09-15T23:46:05.773Z,84.65
2022-09-15T23:48:33.340Z,83.07
2022-09-15T23:51:01.359Z,84.05
2022-09-15T23:53:29.105Z,83.10
2022-09-15T23:55:56.705Z,83.25
2022-09-15T23:58:24.848Z,84.20
